CSN8885 ZBAD-ZSSS
Flight info
| Callsign | CSN8885 |
|---|---|
| Flight time | 1h 28m |
| Altitude | 37100 |
| Route | ELKUR W40 YQG W142 DALIM A593 DPX A470 DALNU W166 ZJ W167 SASAN R343 PK |
| Aircraft | A339/H-SADE1E2E3GHIJ3J5M1P2RWXY/LB2D1 |
Departure
| Time | 2026-04-28 05:30 |
|---|---|
| Airport | Beijing Daxing International Airport (ZBAD) |
Arrival
| Time | 2026-04-28 06:59 |
|---|---|
| Airport | Shanghai Hongqiao International Airport (ZSSS) |
| Time | Latitude | Longitude | Altitude | Speed | Heading |
|---|---|---|---|---|---|
| 2026-04-28 05:15 | 39.50933 | 116.41615 | 99 ft | 0 kts | 193° |
| 2026-04-28 05:19 | 39.50934 | 116.41615 | 99 ft | 1 kts | 193° |
| 2026-04-28 05:19 | 39.50948 | 116.41620 | 99 ft | 2 kts | 193° |
| 2026-04-28 05:19 | 39.50963 | 116.41624 | 99 ft | 2 kts | 193° |
| 2026-04-28 05:20 | 39.50978 | 116.41628 | 99 ft | 2 kts | 193° |
| 2026-04-28 05:20 | 39.50993 | 116.41633 | 99 ft | 2 kts | 198° |
| 2026-04-28 05:20 | 39.51005 | 116.41642 | 99 ft | 2 kts | 229° |
| 2026-04-28 05:20 | 39.51014 | 116.41659 | 99 ft | 2 kts | 252° |
| 2026-04-28 05:21 | 39.51015 | 116.41678 | 99 ft | 2 kts | 277° |
| 2026-04-28 05:21 | 39.51013 | 116.41697 | 99 ft | 1 kts | 282° |
| 2026-04-28 05:21 | 39.51011 | 116.41707 | 99 ft | 1 kts | 277° |
| 2026-04-28 05:21 | 39.51011 | 116.41708 | 99 ft | 0 kts | 277° |
| 2026-04-28 05:24 | 39.51012 | 116.41700 | 99 ft | 2 kts | 277° |
| 2026-04-28 05:24 | 39.51015 | 116.41664 | 99 ft | 5 kts | 277° |
| 2026-04-28 05:24 | 39.51026 | 116.41611 | 99 ft | 5 kts | 310° |
| 2026-04-28 05:25 | 39.51072 | 116.41589 | 99 ft | 8 kts | 2° |
| 2026-04-28 05:25 | 39.51118 | 116.41640 | 99 ft | 10 kts | 67° |
| 2026-04-28 05:25 | 39.51151 | 116.41739 | 99 ft | 12 kts | 67° |
| 2026-04-28 05:25 | 39.51177 | 116.41858 | 99 ft | 14 kts | 89° |
| 2026-04-28 05:26 | 39.51179 | 116.41992 | 99 ft | 10 kts | 85° |
| 2026-04-28 05:26 | 39.51221 | 116.42040 | 99 ft | 9 kts | 8° |
| 2026-04-28 05:26 | 39.51291 | 116.42027 | 99 ft | 11 kts | 349° |
| 2026-04-28 05:26 | 39.51373 | 116.42007 | 99 ft | 9 kts | 356° |
| 2026-04-28 05:27 | 39.51399 | 116.42047 | 99 ft | 7 kts | 79° |
| 2026-04-28 05:27 | 39.51409 | 116.42128 | 99 ft | 10 kts | 83° |
| 2026-04-28 05:27 | 39.51419 | 116.42232 | 99 ft | 12 kts | 82° |
| 2026-04-28 05:27 | 39.51432 | 116.42355 | 99 ft | 14 kts | 82° |
| 2026-04-28 05:28 | 39.51447 | 116.42497 | 99 ft | 16 kts | 85° |
| 2026-04-28 05:28 | 39.51460 | 116.42657 | 99 ft | 18 kts | 84° |
| 2026-04-28 05:28 | 39.51476 | 116.42825 | 99 ft | 19 kts | 82° |
| 2026-04-28 05:28 | 39.51494 | 116.43004 | 99 ft | 20 kts | 84° |
| 2026-04-28 05:29 | 39.51531 | 116.43098 | 99 ft | 10 kts | 26° |
| 2026-04-28 05:29 | 39.51606 | 116.43124 | 99 ft | 12 kts | 15° |
| 2026-04-28 05:29 | 39.51660 | 116.43194 | 99 ft | 11 kts | 85° |
| 2026-04-28 05:29 | 39.51643 | 116.43311 | 99 ft | 21 kts | 104° |
| 2026-04-28 05:30 | 39.51557 | 116.43790 | 99 ft | 87 kts | 104° |
| 2026-04-28 05:30 | 39.51374 | 116.44801 | 99 ft | 142 kts | 103° |
| 2026-04-28 05:30 | 39.51118 | 116.46236 | 186 ft | 178 kts | 102° |
| 2026-04-28 05:30 | 39.50838 | 116.47761 | 811 ft | 172 kts | 100° |
| 2026-04-28 05:31 | 39.50572 | 116.49272 | 1385 ft | 175 kts | 100° |
| 2026-04-28 05:31 | 39.50291 | 116.50853 | 1759 ft | 190 kts | 100° |
| 2026-04-28 05:31 | 39.49972 | 116.52641 | 2124 ft | 208 kts | 100° |
| 2026-04-28 05:31 | 39.49617 | 116.54631 | 2517 ft | 227 kts | 101° |
| 2026-04-28 05:32 | 39.49236 | 116.56751 | 2929 ft | 244 kts | 101° |
| 2026-04-28 05:32 | 39.48840 | 116.58953 | 3322 ft | 262 kts | 101° |
| 2026-04-28 05:32 | 39.48418 | 116.61285 | 3916 ft | 271 kts | 101° |
| 2026-04-28 05:32 | 39.47990 | 116.63659 | 4698 ft | 272 kts | 99° |
| 2026-04-28 05:33 | 39.47621 | 116.66057 | 5448 ft | 274 kts | 98° |
| 2026-04-28 05:33 | 39.47246 | 116.68600 | 6219 ft | 276 kts | 98° |
| 2026-04-28 05:33 | 39.46880 | 116.71085 | 6957 ft | 278 kts | 98° |
| 2026-04-28 05:33 | 39.46514 | 116.73572 | 7656 ft | 281 kts | 97° |
| 2026-04-28 05:34 | 39.46041 | 116.76155 | 8296 ft | 286 kts | 112° |
| 2026-04-28 05:34 | 39.44743 | 116.78231 | 8928 ft | 293 kts | 145° |
| 2026-04-28 05:34 | 39.42777 | 116.79403 | 9604 ft | 296 kts | 159° |
| 2026-04-28 05:34 | 39.40722 | 116.80365 | 10173 ft | 302 kts | 160° |
| 2026-04-28 05:35 | 39.38627 | 116.81361 | 10608 ft | 313 kts | 159° |
| 2026-04-28 05:35 | 39.36400 | 116.82457 | 10926 ft | 329 kts | 159° |
| 2026-04-28 05:35 | 39.34125 | 116.83598 | 11228 ft | 344 kts | 159° |
| 2026-04-28 05:35 | 39.31784 | 116.84782 | 11515 ft | 360 kts | 159° |
| 2026-04-28 05:36 | 39.29259 | 116.86060 | 11821 ft | 376 kts | 159° |
| 2026-04-28 05:36 | 39.26647 | 116.87381 | 12153 ft | 390 kts | 159° |
| 2026-04-28 05:36 | 39.23965 | 116.88740 | 12779 ft | 396 kts | 159° |
| 2026-04-28 05:36 | 39.21293 | 116.90089 | 13503 ft | 398 kts | 159° |
| 2026-04-28 05:37 | 39.18629 | 116.91431 | 14198 ft | 402 kts | 159° |
| 2026-04-28 05:37 | 39.15819 | 116.92849 | 14819 ft | 408 kts | 160° |
| 2026-04-28 05:37 | 39.12988 | 116.94276 | 15475 ft | 413 kts | 160° |
| 2026-04-28 05:37 | 39.10144 | 116.95713 | 16061 ft | 419 kts | 161° |
| 2026-04-28 05:38 | 39.07305 | 116.97144 | 16649 ft | 424 kts | 161° |
| 2026-04-28 05:38 | 39.04565 | 116.98502 | 17231 ft | 427 kts | 164° |
| 2026-04-28 05:38 | 39.01588 | 116.99320 | 17738 ft | 426 kts | 179° |
| 2026-04-28 05:38 | 38.98621 | 116.99575 | 18314 ft | 428 kts | 182° |
| 2026-04-28 05:39 | 38.95659 | 116.99739 | 18825 ft | 433 kts | 184° |
| 2026-04-28 05:39 | 38.92637 | 116.99937 | 19364 ft | 438 kts | 184° |
| 2026-04-28 05:39 | 38.89584 | 117.00182 | 19874 ft | 442 kts | 183° |
| 2026-04-28 05:39 | 38.86480 | 117.00460 | 20308 ft | 447 kts | 183° |
| 2026-04-28 05:40 | 38.83400 | 117.00763 | 20800 ft | 451 kts | 183° |
| 2026-04-28 05:40 | 38.80256 | 117.01090 | 21317 ft | 453 kts | 184° |
| 2026-04-28 05:40 | 38.77093 | 117.01422 | 21787 ft | 456 kts | 184° |
| 2026-04-28 05:40 | 38.73936 | 117.01753 | 22206 ft | 460 kts | 185° |
| 2026-04-28 05:41 | 38.70745 | 117.02088 | 22650 ft | 463 kts | 185° |
| 2026-04-28 05:41 | 38.67525 | 117.02432 | 23056 ft | 466 kts | 186° |
| 2026-04-28 05:41 | 38.64290 | 117.02779 | 23533 ft | 467 kts | 186° |
| 2026-04-28 05:41 | 38.61067 | 117.03120 | 23917 ft | 470 kts | 186° |
| 2026-04-28 05:42 | 38.57784 | 117.03468 | 24409 ft | 471 kts | 187° |
| 2026-04-28 05:42 | 38.54512 | 117.03818 | 24844 ft | 472 kts | 187° |
| 2026-04-28 05:42 | 38.51248 | 117.04164 | 25249 ft | 473 kts | 187° |
| 2026-04-28 05:42 | 38.47967 | 117.04513 | 25735 ft | 472 kts | 187° |
| 2026-04-28 05:43 | 38.44698 | 117.04861 | 26177 ft | 473 kts | 188° |
| 2026-04-28 05:43 | 38.41373 | 117.05215 | 26677 ft | 471 kts | 188° |
| 2026-04-28 05:43 | 38.37978 | 117.05579 | 27164 ft | 470 kts | 188° |
| 2026-04-28 05:43 | 38.34730 | 117.05924 | 27591 ft | 469 kts | 188° |
| 2026-04-28 05:44 | 38.31497 | 117.06262 | 27936 ft | 470 kts | 188° |
| 2026-04-28 05:44 | 38.28231 | 117.06605 | 28354 ft | 470 kts | 189° |
| 2026-04-28 05:44 | 38.25000 | 117.06945 | 28696 ft | 471 kts | 188° |
| 2026-04-28 05:44 | 38.21712 | 117.07291 | 29101 ft | 470 kts | 189° |
| 2026-04-28 05:45 | 38.18474 | 117.07637 | 29568 ft | 468 kts | 189° |
| 2026-04-28 05:45 | 38.15248 | 117.07979 | 30085 ft | 465 kts | 189° |
| 2026-04-28 05:45 | 38.12076 | 117.08319 | 30674 ft | 460 kts | 189° |
| 2026-04-28 05:45 | 38.08871 | 117.08656 | 31016 ft | 461 kts | 189° |
| 2026-04-28 05:46 | 38.05691 | 117.08985 | 31285 ft | 463 kts | 189° |
| 2026-04-28 05:46 | 38.02447 | 117.09320 | 31652 ft | 463 kts | 189° |
| 2026-04-28 05:46 | 37.99290 | 117.09654 | 32134 ft | 460 kts | 189° |
| 2026-04-28 05:46 | 37.96065 | 117.09992 | 32514 ft | 459 kts | 189° |
| 2026-04-28 05:47 | 37.92921 | 117.10322 | 32863 ft | 459 kts | 189° |
| 2026-04-28 05:47 | 37.89702 | 117.10658 | 33206 ft | 459 kts | 189° |
| 2026-04-28 05:47 | 37.86508 | 117.10992 | 33508 ft | 460 kts | 189° |
| 2026-04-28 05:47 | 37.83336 | 117.11319 | 33801 ft | 462 kts | 189° |
| 2026-04-28 05:48 | 37.80141 | 117.11655 | 34267 ft | 459 kts | 189° |
| 2026-04-28 05:48 | 37.76988 | 117.11990 | 34736 ft | 457 kts | 189° |
| 2026-04-28 05:48 | 37.73836 | 117.12317 | 35087 ft | 456 kts | 190° |
| 2026-04-28 05:48 | 37.70679 | 117.12643 | 35439 ft | 456 kts | 189° |
| 2026-04-28 05:49 | 37.67491 | 117.12974 | 35832 ft | 454 kts | 190° |
| 2026-04-28 05:49 | 37.64377 | 117.13299 | 36085 ft | 455 kts | 190° |
| 2026-04-28 05:49 | 37.61213 | 117.13623 | 36300 ft | 456 kts | 190° |
| 2026-04-28 05:49 | 37.58020 | 117.13950 | 36520 ft | 458 kts | 189° |
| 2026-04-28 05:50 | 37.54865 | 117.14275 | 36722 ft | 459 kts | 189° |
| 2026-04-28 05:50 | 37.51699 | 117.14600 | 36926 ft | 460 kts | 189° |
| 2026-04-28 05:50 | 37.48504 | 117.14933 | 37212 ft | 460 kts | 190° |
| 2026-04-28 05:50 | 37.45287 | 117.15266 | 37253 ft | 462 kts | 189° |
| 2026-04-28 05:51 | 37.38904 | 117.15923 | 37252 ft | 462 kts | 189° |
| 2026-04-28 05:51 | 37.32500 | 117.16589 | 37253 ft | 459 kts | 189° |
| 2026-04-28 05:52 | 37.26113 | 117.17245 | 37254 ft | 461 kts | 189° |
| 2026-04-28 05:52 | 37.19713 | 117.17900 | 37251 ft | 460 kts | 189° |
| 2026-04-28 05:53 | 37.13348 | 117.18555 | 37250 ft | 458 kts | 189° |
| 2026-04-28 05:53 | 37.07014 | 117.19202 | 37250 ft | 459 kts | 189° |
| 2026-04-28 05:54 | 37.00655 | 117.19847 | 37247 ft | 458 kts | 189° |
| 2026-04-28 05:54 | 36.94330 | 117.20491 | 37243 ft | 459 kts | 189° |
| 2026-04-28 05:55 | 36.87986 | 117.21138 | 37244 ft | 458 kts | 189° |
| 2026-04-28 05:55 | 36.81633 | 117.21597 | 37239 ft | 451 kts | 193° |
| 2026-04-28 05:56 | 36.75366 | 117.21558 | 37239 ft | 450 kts | 193° |
| 2026-04-28 05:56 | 36.69097 | 117.21515 | 37242 ft | 450 kts | 193° |
| 2026-04-28 05:57 | 36.62795 | 117.21468 | 37243 ft | 450 kts | 193° |
| 2026-04-28 05:57 | 36.56569 | 117.21426 | 37244 ft | 449 kts | 193° |
| 2026-04-28 05:58 | 36.50302 | 117.21388 | 37241 ft | 452 kts | 192° |
| 2026-04-28 05:58 | 36.43922 | 117.21859 | 37238 ft | 462 kts | 186° |
| 2026-04-28 05:59 | 36.37498 | 117.23151 | 37239 ft | 474 kts | 180° |
| 2026-04-28 05:59 | 36.31060 | 117.25283 | 37233 ft | 483 kts | 175° |
| 2026-04-28 06:00 | 36.24674 | 117.27673 | 37233 ft | 480 kts | 175° |
| 2026-04-28 06:00 | 36.18251 | 117.30055 | 37223 ft | 480 kts | 175° |
| 2026-04-28 06:01 | 36.11831 | 117.32431 | 37223 ft | 481 kts | 175° |
| 2026-04-28 06:01 | 36.05471 | 117.34785 | 37227 ft | 479 kts | 175° |
| 2026-04-28 06:02 | 35.99067 | 117.37148 | 37224 ft | 481 kts | 175° |
| 2026-04-28 06:02 | 35.92678 | 117.39540 | 37223 ft | 482 kts | 175° |
| 2026-04-28 06:03 | 35.86255 | 117.41952 | 37231 ft | 482 kts | 175° |
| 2026-04-28 06:03 | 35.79849 | 117.44347 | 37229 ft | 480 kts | 175° |
| 2026-04-28 06:04 | 35.73459 | 117.46730 | 37231 ft | 481 kts | 175° |
| 2026-04-28 06:04 | 35.67094 | 117.49101 | 37233 ft | 479 kts | 175° |
| 2026-04-28 06:05 | 35.60712 | 117.51469 | 37227 ft | 483 kts | 175° |
| 2026-04-28 06:05 | 35.54274 | 117.53855 | 37230 ft | 482 kts | 174° |
| 2026-04-28 06:06 | 35.47838 | 117.56243 | 37228 ft | 483 kts | 175° |
| 2026-04-28 06:06 | 35.41373 | 117.58631 | 37224 ft | 486 kts | 175° |
| 2026-04-28 06:07 | 35.34925 | 117.61011 | 37225 ft | 485 kts | 174° |
| 2026-04-28 06:07 | 35.28490 | 117.63385 | 37230 ft | 485 kts | 174° |
| 2026-04-28 06:08 | 35.22036 | 117.65758 | 37226 ft | 486 kts | 175° |
| 2026-04-28 06:08 | 35.15572 | 117.68133 | 37227 ft | 484 kts | 175° |
| 2026-04-28 06:09 | 35.09075 | 117.70512 | 37219 ft | 488 kts | 175° |
| 2026-04-28 06:09 | 35.02584 | 117.72887 | 37223 ft | 489 kts | 174° |
| 2026-04-28 06:10 | 34.96073 | 117.75276 | 37227 ft | 490 kts | 174° |
| 2026-04-28 06:10 | 34.89571 | 117.77657 | 37225 ft | 487 kts | 174° |
| 2026-04-28 06:11 | 34.83103 | 117.80019 | 37221 ft | 486 kts | 174° |
| 2026-04-28 06:11 | 34.76616 | 117.82375 | 37221 ft | 487 kts | 174° |
| 2026-04-28 06:12 | 34.70064 | 117.84730 | 37218 ft | 488 kts | 174° |
| 2026-04-28 06:12 | 34.63590 | 117.87057 | 37216 ft | 485 kts | 174° |
| 2026-04-28 06:13 | 34.57067 | 117.89394 | 37217 ft | 489 kts | 174° |
| 2026-04-28 06:13 | 34.50589 | 117.91718 | 37213 ft | 489 kts | 174° |
| 2026-04-28 06:14 | 34.43744 | 117.94166 | 37211 ft | 489 kts | 174° |
| 2026-04-28 06:14 | 34.36837 | 117.96632 | 37210 ft | 487 kts | 174° |
| 2026-04-28 06:15 | 34.29996 | 117.99065 | 37204 ft | 488 kts | 174° |
| 2026-04-28 06:15 | 34.23089 | 118.01553 | 37204 ft | 490 kts | 173° |
| 2026-04-28 06:16 | 34.16191 | 118.04076 | 37206 ft | 487 kts | 173° |
| 2026-04-28 06:16 | 34.09427 | 118.06539 | 37206 ft | 488 kts | 173° |
| 2026-04-28 06:17 | 34.02600 | 118.09016 | 37204 ft | 488 kts | 173° |
| 2026-04-28 06:18 | 33.92368 | 118.12740 | 37199 ft | 489 kts | 173° |
| 2026-04-28 06:18 | 33.85496 | 118.15533 | 37200 ft | 495 kts | 168° |
| 2026-04-28 06:19 | 33.78890 | 118.19234 | 37202 ft | 506 kts | 161° |
| 2026-04-28 06:19 | 33.72870 | 118.23674 | 37207 ft | 515 kts | 154° |
| 2026-04-28 06:20 | 33.66983 | 118.28597 | 37209 ft | 516 kts | 154° |
| 2026-04-28 06:20 | 33.61087 | 118.33521 | 37214 ft | 515 kts | 154° |
| 2026-04-28 06:21 | 33.55209 | 118.38399 | 37208 ft | 516 kts | 154° |
| 2026-04-28 06:21 | 33.49295 | 118.43294 | 37212 ft | 514 kts | 154° |
| 2026-04-28 06:22 | 33.43428 | 118.48135 | 37212 ft | 517 kts | 154° |
| 2026-04-28 06:22 | 33.37532 | 118.52994 | 37206 ft | 516 kts | 154° |
| 2026-04-28 06:23 | 33.31605 | 118.57876 | 37211 ft | 515 kts | 154° |
| 2026-04-28 06:23 | 33.25727 | 118.62704 | 37211 ft | 514 kts | 154° |
| 2026-04-28 06:24 | 33.19838 | 118.67537 | 36993 ft | 516 kts | 154° |
| 2026-04-28 06:24 | 33.16889 | 118.69981 | 36704 ft | 514 kts | 153° |
| 2026-04-28 06:24 | 33.13986 | 118.72395 | 36415 ft | 511 kts | 153° |
| 2026-04-28 06:24 | 33.11058 | 118.74835 | 36127 ft | 506 kts | 153° |
| 2026-04-28 06:25 | 33.08211 | 118.77200 | 35843 ft | 504 kts | 153° |
| 2026-04-28 06:25 | 33.05316 | 118.79599 | 35556 ft | 505 kts | 153° |
| 2026-04-28 06:25 | 33.02430 | 118.81985 | 35272 ft | 506 kts | 153° |
| 2026-04-28 06:25 | 32.99524 | 118.84386 | 34987 ft | 507 kts | 153° |
| 2026-04-28 06:26 | 32.96648 | 118.86762 | 34697 ft | 508 kts | 153° |
| 2026-04-28 06:26 | 32.93738 | 118.89167 | 34416 ft | 508 kts | 152° |
| 2026-04-28 06:26 | 32.90836 | 118.91565 | 34127 ft | 507 kts | 152° |
| 2026-04-28 06:26 | 32.87946 | 118.93948 | 33841 ft | 508 kts | 152° |
| 2026-04-28 06:27 | 32.85062 | 118.96320 | 33510 ft | 508 kts | 152° |
| 2026-04-28 06:27 | 32.82131 | 118.98746 | 33103 ft | 510 kts | 152° |
| 2026-04-28 06:27 | 32.79229 | 119.01155 | 32572 ft | 512 kts | 152° |
| 2026-04-28 06:27 | 32.76320 | 119.03574 | 32050 ft | 510 kts | 152° |
| 2026-04-28 06:28 | 32.73447 | 119.05963 | 31585 ft | 509 kts | 152° |
| 2026-04-28 06:28 | 32.70522 | 119.08390 | 31075 ft | 509 kts | 152° |
| 2026-04-28 06:28 | 32.67628 | 119.10786 | 30487 ft | 510 kts | 151° |
| 2026-04-28 06:28 | 32.64718 | 119.13193 | 29911 ft | 509 kts | 151° |
| 2026-04-28 06:29 | 32.61814 | 119.15595 | 29356 ft | 509 kts | 151° |
| 2026-04-28 06:29 | 32.58931 | 119.17976 | 28738 ft | 509 kts | 151° |
| 2026-04-28 06:29 | 32.55917 | 119.20467 | 28167 ft | 505 kts | 151° |
| 2026-04-28 06:29 | 32.52990 | 119.22887 | 27795 ft | 498 kts | 151° |
| 2026-04-28 06:30 | 32.50160 | 119.25224 | 27450 ft | 494 kts | 151° |
| 2026-04-28 06:30 | 32.47358 | 119.27531 | 27208 ft | 497 kts | 151° |
| 2026-04-28 06:30 | 32.44527 | 119.29856 | 26949 ft | 497 kts | 151° |
| 2026-04-28 06:30 | 32.41695 | 119.32183 | 26696 ft | 495 kts | 151° |
| 2026-04-28 06:31 | 32.38873 | 119.34502 | 26449 ft | 493 kts | 151° |
| 2026-04-28 06:31 | 32.36035 | 119.36833 | 26197 ft | 491 kts | 151° |
| 2026-04-28 06:31 | 32.33273 | 119.39099 | 25950 ft | 489 kts | 151° |
| 2026-04-28 06:31 | 32.30462 | 119.41404 | 25698 ft | 487 kts | 151° |
| 2026-04-28 06:32 | 32.27683 | 119.43678 | 25437 ft | 487 kts | 151° |
| 2026-04-28 06:32 | 32.24931 | 119.45931 | 25191 ft | 485 kts | 151° |
| 2026-04-28 06:32 | 32.22136 | 119.48218 | 24941 ft | 483 kts | 151° |
| 2026-04-28 06:32 | 32.19394 | 119.50459 | 24693 ft | 481 kts | 151° |
| 2026-04-28 06:33 | 32.16650 | 119.52699 | 24444 ft | 480 kts | 151° |
| 2026-04-28 06:33 | 32.13902 | 119.54942 | 24189 ft | 478 kts | 151° |
| 2026-04-28 06:33 | 32.11182 | 119.57160 | 23945 ft | 476 kts | 151° |
| 2026-04-28 06:33 | 32.08481 | 119.59360 | 23714 ft | 475 kts | 150° |
| 2026-04-28 06:34 | 32.05747 | 119.61587 | 23478 ft | 474 kts | 151° |
| 2026-04-28 06:34 | 32.03075 | 119.63762 | 23247 ft | 471 kts | 151° |
| 2026-04-28 06:34 | 32.00358 | 119.65969 | 23011 ft | 469 kts | 151° |
| 2026-04-28 06:34 | 31.97707 | 119.68124 | 22775 ft | 467 kts | 150° |
| 2026-04-28 06:35 | 31.95139 | 119.70558 | 22541 ft | 472 kts | 142° |
| 2026-04-28 06:35 | 31.92880 | 119.73347 | 22317 ft | 476 kts | 135° |
| 2026-04-28 06:35 | 31.90895 | 119.76505 | 22093 ft | 477 kts | 129° |
| 2026-04-28 06:35 | 31.89037 | 119.79746 | 21868 ft | 476 kts | 128° |
| 2026-04-28 06:36 | 31.87212 | 119.82981 | 21644 ft | 475 kts | 128° |
| 2026-04-28 06:36 | 31.85378 | 119.86224 | 21414 ft | 472 kts | 128° |
| 2026-04-28 06:36 | 31.83562 | 119.89413 | 21190 ft | 471 kts | 128° |
| 2026-04-28 06:36 | 31.81731 | 119.92612 | 20969 ft | 469 kts | 128° |
| 2026-04-28 06:37 | 31.79932 | 119.95736 | 20756 ft | 467 kts | 129° |
| 2026-04-28 06:37 | 31.78101 | 119.98914 | 20512 ft | 465 kts | 129° |
| 2026-04-28 06:37 | 31.76294 | 120.02043 | 20182 ft | 463 kts | 129° |
| 2026-04-28 06:37 | 31.74482 | 120.05180 | 19796 ft | 459 kts | 129° |
| 2026-04-28 06:38 | 31.72696 | 120.08264 | 19412 ft | 456 kts | 129° |
| 2026-04-28 06:38 | 31.70913 | 120.11341 | 18978 ft | 453 kts | 129° |
| 2026-04-28 06:38 | 31.69166 | 120.14357 | 18590 ft | 449 kts | 129° |
| 2026-04-28 06:38 | 31.67433 | 120.17348 | 18187 ft | 445 kts | 129° |
| 2026-04-28 06:39 | 31.65684 | 120.20361 | 17834 ft | 439 kts | 129° |
| 2026-04-28 06:39 | 31.63977 | 120.23297 | 17499 ft | 434 kts | 129° |
| 2026-04-28 06:39 | 31.62285 | 120.26205 | 17140 ft | 429 kts | 129° |
| 2026-04-28 06:39 | 31.60620 | 120.29083 | 16768 ft | 426 kts | 128° |
| 2026-04-28 06:40 | 31.59142 | 120.32081 | 16402 ft | 426 kts | 122° |
| 2026-04-28 06:40 | 31.57936 | 120.35224 | 16013 ft | 427 kts | 115° |
| 2026-04-28 06:40 | 31.56923 | 120.38507 | 15614 ft | 425 kts | 113° |
| 2026-04-28 06:40 | 31.55978 | 120.41732 | 15217 ft | 422 kts | 112° |
| 2026-04-28 06:41 | 31.55039 | 120.44968 | 14841 ft | 419 kts | 113° |
| 2026-04-28 06:41 | 31.54091 | 120.48199 | 14440 ft | 416 kts | 113° |
| 2026-04-28 06:41 | 31.53156 | 120.51364 | 14040 ft | 413 kts | 113° |
| 2026-04-28 06:41 | 31.52209 | 120.54552 | 13658 ft | 410 kts | 113° |
| 2026-04-28 06:42 | 31.51273 | 120.57690 | 13284 ft | 406 kts | 113° |
| 2026-04-28 06:42 | 31.50345 | 120.60793 | 12928 ft | 402 kts | 113° |
| 2026-04-28 06:42 | 31.49430 | 120.63841 | 12577 ft | 398 kts | 113° |
| 2026-04-28 06:42 | 31.48514 | 120.66898 | 12265 ft | 393 kts | 114° |
| 2026-04-28 06:43 | 31.47620 | 120.69868 | 11931 ft | 388 kts | 114° |
| 2026-04-28 06:43 | 31.46724 | 120.72849 | 11587 ft | 383 kts | 114° |
| 2026-04-28 06:43 | 31.45857 | 120.75732 | 11244 ft | 378 kts | 114° |
| 2026-04-28 06:43 | 31.44981 | 120.78638 | 10904 ft | 374 kts | 114° |
| 2026-04-28 06:44 | 31.44126 | 120.81473 | 10577 ft | 369 kts | 114° |
| 2026-04-28 06:44 | 31.43272 | 120.84306 | 10320 ft | 361 kts | 113° |
| 2026-04-28 06:44 | 31.42451 | 120.87030 | 10230 ft | 348 kts | 114° |
| 2026-04-28 06:44 | 31.41664 | 120.89655 | 10140 ft | 336 kts | 114° |
| 2026-04-28 06:45 | 31.40899 | 120.92172 | 10059 ft | 324 kts | 114° |
| 2026-04-28 06:45 | 31.40153 | 120.94630 | 9833 ft | 319 kts | 114° |
| 2026-04-28 06:45 | 31.39409 | 120.97066 | 9582 ft | 314 kts | 114° |
| 2026-04-28 06:45 | 31.38692 | 120.99426 | 9280 ft | 306 kts | 114° |
| 2026-04-28 06:46 | 31.37982 | 121.01755 | 8995 ft | 297 kts | 113° |
| 2026-04-28 06:46 | 31.37311 | 121.03961 | 8884 ft | 282 kts | 112° |
| 2026-04-28 06:46 | 31.36661 | 121.06100 | 8897 ft | 279 kts | 113° |
| 2026-04-28 06:46 | 31.36002 | 121.08263 | 8894 ft | 281 kts | 114° |
| 2026-04-28 06:47 | 31.35343 | 121.10410 | 8621 ft | 283 kts | 112° |
| 2026-04-28 06:47 | 31.34678 | 121.12560 | 8349 ft | 281 kts | 112° |
| 2026-04-28 06:47 | 31.34017 | 121.14688 | 8073 ft | 279 kts | 112° |
| 2026-04-28 06:47 | 31.33358 | 121.16811 | 7851 ft | 276 kts | 111° |
| 2026-04-28 06:48 | 31.32703 | 121.18917 | 7578 ft | 274 kts | 111° |
| 2026-04-28 06:48 | 31.31821 | 121.20863 | 7282 ft | 271 kts | 133° |
| 2026-04-28 06:48 | 31.30248 | 121.22041 | 7076 ft | 268 kts | 161° |
| 2026-04-28 06:48 | 31.28411 | 121.22318 | 7067 ft | 266 kts | 174° |
| 2026-04-28 06:49 | 31.26555 | 121.22410 | 7049 ft | 266 kts | 175° |
| 2026-04-28 06:49 | 31.24696 | 121.22498 | 6716 ft | 264 kts | 175° |
| 2026-04-28 06:49 | 31.22770 | 121.22594 | 6228 ft | 265 kts | 174° |
| 2026-04-28 06:49 | 31.20820 | 121.22697 | 5976 ft | 256 kts | 173° |
| 2026-04-28 06:50 | 31.18961 | 121.22797 | 5803 ft | 246 kts | 173° |
| 2026-04-28 06:50 | 31.17143 | 121.22898 | 5483 ft | 244 kts | 173° |
| 2026-04-28 06:50 | 31.15310 | 121.23000 | 5179 ft | 241 kts | 172° |
| 2026-04-28 06:50 | 31.13549 | 121.23099 | 4960 ft | 235 kts | 173° |
| 2026-04-28 06:51 | 31.11837 | 121.23193 | 4741 ft | 233 kts | 172° |
| 2026-04-28 06:51 | 31.10079 | 121.23290 | 4525 ft | 236 kts | 172° |
| 2026-04-28 06:51 | 31.08364 | 121.23385 | 4300 ft | 236 kts | 172° |
| 2026-04-28 06:51 | 31.06678 | 121.23476 | 4171 ft | 233 kts | 172° |
| 2026-04-28 06:52 | 31.05051 | 121.23563 | 4020 ft | 229 kts | 172° |
| 2026-04-28 06:52 | 31.03468 | 121.23650 | 3826 ft | 227 kts | 171° |
| 2026-04-28 06:52 | 31.01944 | 121.23996 | 3528 ft | 218 kts | 140° |
| 2026-04-28 06:52 | 31.01045 | 121.25260 | 3262 ft | 198 kts | 96° |
| 2026-04-28 06:53 | 31.01088 | 121.26785 | 3146 ft | 183 kts | 77° |
| 2026-04-28 06:53 | 31.01242 | 121.28240 | 3016 ft | 180 kts | 80° |
| 2026-04-28 06:53 | 31.01342 | 121.29682 | 2834 ft | 176 kts | 81° |
| 2026-04-28 06:53 | 31.01420 | 121.31094 | 2594 ft | 175 kts | 82° |
| 2026-04-28 06:54 | 31.01489 | 121.32516 | 2369 ft | 173 kts | 82° |
| 2026-04-28 06:54 | 31.01758 | 121.33841 | 2102 ft | 168 kts | 54° |
| 2026-04-28 06:54 | 31.02693 | 121.34565 | 1968 ft | 163 kts | 14° |
| 2026-04-28 06:54 | 31.03796 | 121.34597 | 1968 ft | 153 kts | 2° |
| 2026-04-28 06:55 | 31.04848 | 121.34486 | 1970 ft | 151 kts | 2° |
| 2026-04-28 06:55 | 31.05901 | 121.34383 | 1976 ft | 151 kts | 2° |
| 2026-04-28 06:55 | 31.06948 | 121.34304 | 1978 ft | 151 kts | 3° |
| 2026-04-28 06:55 | 31.08010 | 121.34242 | 1978 ft | 151 kts | 3° |
| 2026-04-28 06:56 | 31.09068 | 121.34187 | 1836 ft | 153 kts | 4° |
| 2026-04-28 06:56 | 31.10120 | 121.34134 | 1639 ft | 150 kts | 3° |
| 2026-04-28 06:56 | 31.11143 | 121.34080 | 1430 ft | 143 kts | 4° |
| 2026-04-28 06:56 | 31.12117 | 121.34029 | 1237 ft | 137 kts | 4° |
| 2026-04-28 06:57 | 31.13084 | 121.33981 | 1068 ft | 138 kts | 3° |
| 2026-04-28 06:57 | 31.14039 | 121.33932 | 894 ft | 138 kts | 2° |
| 2026-04-28 06:57 | 31.14993 | 121.33882 | 713 ft | 138 kts | 1° |
| 2026-04-28 06:57 | 31.15845 | 121.33836 | 541 ft | 137 kts | 2° |
| 2026-04-28 06:58 | 31.16796 | 121.33785 | 370 ft | 137 kts | 1° |
| 2026-04-28 06:58 | 31.17740 | 121.33732 | 195 ft | 135 kts | 0° |
| 2026-04-28 06:58 | 31.18678 | 121.33686 | 27 ft | 130 kts | 1° |
| 2026-04-28 06:58 | 31.19467 | 121.33652 | 23 ft | 87 kts | 357° |
| 2026-04-28 06:59 | 31.19916 | 121.33628 | 23 ft | 52 kts | 356° |
| 2026-04-28 06:59 | 31.20229 | 121.33583 | 23 ft | 30 kts | 339° |
| 2026-04-28 06:59 | 31.20342 | 121.33527 | 23 ft | 25 kts | 332° |
| 2026-04-28 06:59 | 31.20513 | 121.33398 | 23 ft | 12 kts | 291° |
| 2026-04-28 07:00 | 31.20519 | 121.33363 | 23 ft | 13 kts | 276° |